Rocklake, North Dakota
Current Conditions -  °F | °C
As of 11:15 PM on Tuesday 25 Nov 2014 (Local Time) from K06D Reporting Station
Overcast Overcast  
Wind Chill: -12°   Ceiling: 800
Heat Index:   Visibility: 10mi
Dew Point:   Wind: 14mph
Humidity: 85%   Direction: 20°NNE
Pressure: 30.15"   Gusts: NA
Location:  48.79°N, 99.25°W
Report Text: K06D 260515Z AUTO 02012KT 10SM OVC008 M15/M17 A3015 RMK AO2
Loading
Personal Weather Stations






























Interactive Weather Map New forecast layout! Learn more

10-Day Weather Forecast

Advertisements
Track Severe Weather on mobile